CheckWX is a tool to help pilots better visualize weather data.  It is not intended as a substitute for an official pre-flight weather briefing.

06:46:14 UTC

FNDU METAR
Dundo Airport
Chitato, Angola
Current

18 hours ago

FNDU 201300Z 00000KT 9999 FEW027 SCT033 FEW034CB 32/16 Q1015
Observed
May-20 @ 13:00 UTC
Visibility
10,000+ meters
Flight Rules
VFR
Cloud Levels
  • Few at 2,700' AGL
  • Scattered at 3,300' AGL
  • Few at 3,400' AGL
Temperature
32°C / 90°F
Dewpoint
16°C / 61°F
Humidity
38%
Altimeter
29.97" Hg
Pressure
1014.92 hPa
Previous

19 hours ago

FNDU 201200Z 00000KT 9999 FEW030 SCT033 FEW034CB 31/20 Q1017
Observed
May-20 @ 12:00 UTC
Visibility
10,000+ meters
Flight Rules
VFR
Cloud Levels
  • Few at 3,000' AGL
  • Scattered at 3,300' AGL
  • Few at 3,400' AGL
Temperature
31°C / 88°F
Dewpoint
20°C / 68°F
Heat Index
33°C / 92°F
Humidity
52%
Altimeter
30.03" Hg
Pressure
1016.92 hPa
Previous

20 hours ago

FNDU 201100Z 00000KT 9999 FEW030 30/21 Q1018
Observed
May-20 @ 11:00 UTC
Visibility
10,000+ meters
Flight Rules
VFR
Cloud Levels
  • Few at 3,000' AGL
Temperature
30°C / 86°F
Dewpoint
21°C / 70°F
Heat Index
33°C / 91°F
Humidity
59%
Altimeter
30.06" Hg
Pressure
1017.92 hPa